Time;durP1;ratioP1;P1;durP2;ratioP2;P2;SDS_P1;SDS_P2;PMS_P1;PMS_P2;Temp;Humidity;BMP_temperature;BMP_pressure;BME280_temperature;BME280_humidity;BME280_pressure;Samples;Min_cycle;Max_cycle;Signal;HPM_P1;HPM_P2
2022/07/07 00:02:14;;;;;;;;;;;;;;;23.61;58.44;153591.94;1712602;83;20151;-64
2022/07/07 00:04:41;;;;;;;;;;;;;;;23.59;58.41;153586.70;1712185;82;20140;-63
2022/07/07 00:07:08;;;;;;;;;;;;;;;23.54;58.62;153573.56;1712354;83;20214;-64
2022/07/07 00:09:37;;;;;;;;;;;;;;;23.49;59.01;153560.50;1712277;83;21222;-65
2022/07/07 00:12:05;;;;;;;;;;;;;;;23.40;59.55;153539.58;1716808;83;20199;-65
2022/07/07 00:14:33;;;;;;;;;;;;;;;23.34;59.77;153523.88;1716670;83;20441;-64
2022/07/07 00:17:00;;;;;;;;;;;;;;;23.28;59.96;153508.14;1716853;83;20120;-65
2022/07/07 00:19:27;;;;;;;;;;;;;;;23.23;59.98;153495.02;1716712;82;20224;-64
2022/07/07 00:21:54;;;;;;;;;;;;;;;23.14;60.10;153474.11;1717326;82;21241;-64
2022/07/07 00:24:21;;;;;;;;;;;;;;;23.04;60.28;153449.23;1716820;83;20172;-65
2022/07/07 00:26:48;;;;;;;;;;;;;;;22.97;60.63;153429.59;1717053;83;20445;-65
2022/07/07 00:29:15;;;;;;;;;;;;;;;22.89;60.95;153411.30;1716978;83;20490;-65
2022/07/07 00:31:43;;;;;;;;;;;;;;;22.81;61.31;153390.34;1717234;83;35618;-65
2022/07/07 00:34:10;;;;;;;;;;;;;;;22.73;61.80;153370.70;1721939;83;21260;-65
2022/07/07 00:36:39;;;;;;;;;;;;;;;22.66;62.12;153352.41;1721769;83;20157;-64
2022/07/07 00:39:05;;;;;;;;;;;;;;;22.58;62.55;153332.78;1721805;83;20172;-64
2022/07/07 00:41:33;;;;;;;;;;;;;;;22.50;62.99;153310.53;1721911;83;20196;-64
2022/07/07 00:44:00;;;;;;;;;;;;;;;22.40;63.55;153286.97;1721867;83;20469;-64
2022/07/07 00:46:29;;;;;;;;;;;;;;;22.30;64.44;153262.11;1721988;83;22745;-64
2022/07/07 00:48:55;;;;;;;;;;;;;;;22.22;65.20;153241.20;1721988;83;20436;-64
2022/07/07 00:51:22;;;;;;;;;;;;;;;22.17;66.08;153228.09;1721712;83;20476;-64
2022/07/07 00:53:49;;;;;;;;;;;;;;;22.10;67.31;153211.08;1730439;82;20481;-64
2022/07/07 00:56:15;;;;;;;;;;;;;;;22.05;68.30;153198.00;1736327;82;20222;-65
2022/07/07 00:58:42;;;;;;;;;;;;;;;21.98;69.19;153181.00;1736110;82;21386;-65
2022/07/07 01:01:11;;;;;;;;;;;;;;;21.94;69.94;153170.55;1736132;82;20431;-65
2022/07/07 01:03:37;;;;;;;;;;;;;;;21.89;71.17;153157.48;1736150;82;20131;-65
2022/07/07 01:06:04;;;;;;;;;;;;;;;21.86;71.99;153149.66;1736204;82;20179;-65
2022/07/07 01:08:32;;;;;;;;;;;;;;;21.81;72.78;153137.86;1736116;82;20476;-65
2022/07/07 01:10:59;;;;;;;;;;;;;;;21.78;73.48;153128.75;1729113;82;21155;-66
2022/07/07 01:13:25;;;;;;;;;;;;;;;21.73;74.10;153118.25;1722105;83;20477;-65
2022/07/07 01:15:52;;;;;;;;;;;;;;;21.70;74.46;153110.41;1722397;83;20379;-66
2022/07/07 01:18:19;;;;;;;;;;;;;;;21.67;74.95;153101.28;1722497;83;20516;-65
2022/07/07 01:20:47;;;;;;;;;;;;;;;21.63;75.40;153092.06;1722414;83;20085;-65
2022/07/07 01:23:14;;;;;;;;;;;;;;;21.61;76.16;153086.84;1722542;83;21091;-66
2022/07/07 01:25:40;;;;;;;;;;;;;;;21.56;76.78;153073.78;1722310;83;20189;-66
2022/07/07 01:28:07;;;;;;;;;;;;;;;21.54;77.29;153069.84;1722274;83;20153;-65
2022/07/07 01:30:34;;;;;;;;;;;;;;;21.52;77.93;153064.63;1722284;83;20956;-65
2022/07/07 01:33:01;;;;;;;;;;;;;;;21.48;78.52;153054.17;1717545;83;20451;-65
2022/07/07 01:35:27;;;;;;;;;;;;;;;21.44;79.08;153045.00;1712187;83;21197;-66
2022/07/07 01:37:54;;;;;;;;;;;;;;;21.39;79.92;153030.61;1711952;83;20210;-65
2022/07/07 01:40:20;;;;;;;;;;;;;;;21.37;80.42;153026.72;1711872;83;20206;-65
2022/07/07 01:42:47;;;;;;;;;;;;;;;21.35;81.15;153021.50;1711961;82;20401;-65
2022/07/07 01:45:14;;;;;;;;;;;;;;;21.32;81.85;153013.61;1712057;83;20146;-64
2022/07/07 01:47:41;;;;;;;;;;;;;;;21.27;82.21;153000.55;1712140;83;21127;-65
2022/07/07 01:50:09;;;;;;;;;;;;;;;21.24;82.65;152994.05;1712429;83;20337;-64
2022/07/07 01:52:36;;;;;;;;;;;;;;;21.21;83.35;152984.88;1712394;83;20195;-64
2022/07/07 01:55:04;;;;;;;;;;;;;;;21.17;83.76;152977.05;1712282;83;20166;-64
2022/07/07 01:57:30;;;;;;;;;;;;;;;21.16;84.29;152974.42;1712223;83;20114;-65
2022/07/07 01:59:57;;;;;;;;;;;;;;;21.12;85.07;152963.98;1712477;83;20474;-65
2022/07/07 02:02:23;;;;;;;;;;;;;;;21.10;85.40;152958.70;1712269;83;20184;-64
2022/07/07 02:04:50;;;;;;;;;;;;;;;21.06;85.89;152948.27;1712295;83;20230;-64
2022/07/07 02:07:18;;;;;;;;;;;;;;;21.04;86.15;152943.05;1712416;83;20143;-64
2022/07/07 02:09:44;;;;;;;;;;;;;;;21.00;86.35;152933.92;1712534;83;20171;-64
2022/07/07 02:12:11;;;;;;;;;;;;;;;20.99;86.53;152929.98;1718621;83;21258;-66
2022/07/07 02:14:38;;;;;;;;;;;;;;;20.96;86.89;152922.16;1718402;83;20167;-65
2022/07/07 02:17:05;;;;;;;;;;;;;;;20.93;87.46;152914.31;1718946;83;20126;-65
2022/07/07 02:19:32;;;;;;;;;;;;;;;20.87;87.91;152901.22;1718576;83;20170;-64
2022/07/07 02:21:59;;;;;;;;;;;;;;;20.82;88.34;152888.16;1718571;83;20203;-65
2022/07/07 02:24:26;;;;;;;;;;;;;;;20.80;88.79;152882.94;1718537;82;21186;-64
2022/07/07 02:26:53;;;;;;;;;;;;;;;20.82;89.36;152888.16;1718607;83;20324;-64
2022/07/07 02:29:19;;;;;;;;;;;;;;;20.80;89.78;152882.94;1718617;83;20191;-64
2022/07/07 02:31:48;;;;;;;;;;;;;;;20.81;90.25;152885.55;1718611;83;20167;-64
2022/07/07 02:34:15;;;;;;;;;;;;;;;20.83;90.69;152890.77;1733415;82;20432;-63
2022/07/07 02:36:42;;;;;;;;;;;;;;;20.86;91.11;152897.31;1736069;82;21263;-63
2022/07/07 02:39:09;;;;;;;;;;;;;;;20.91;91.41;152909.09;1736218;82;20191;-64
2022/07/07 02:41:37;;;;;;;;;;;;;;;20.94;91.73;152916.92;1736182;82;20134;-64
2022/07/07 02:44:04;;;;;;;;;;;;;;;20.97;92.02;152924.75;1736384;82;20504;-64
2022/07/07 02:46:31;;;;;;;;;;;;;;;21.00;92.03;152932.59;1736260;82;20436;-63
2022/07/07 02:48:57;;;;;;;;;;;;;;;21.05;92.25;152945.66;1736248;82;21931;-64
2022/07/07 02:51:24;;;;;;;;;;;;;;;21.11;92.49;152960.05;1736148;82;20179;-63
2022/07/07 02:53:51;;;;;;;;;;;;;;;21.16;92.52;152973.09;1736197;82;20140;-64
2022/07/07 02:56:18;;;;;;;;;;;;;;;21.21;92.56;152984.88;1736247;82;20202;-63
2022/07/07 02:58:44;;;;;;;;;;;;;;;21.27;92.67;153000.55;1736280;82;20445;-64
2022/07/07 03:01:11;;;;;;;;;;;;;;;21.31;92.96;153011.00;1736385;82;22086;-64
2022/07/07 03:03:38;;;;;;;;;;;;;;;21.33;93.04;153016.22;1736049;82;20237;-63
2022/07/07 03:06:07;;;;;;;;;;;;;;;21.36;93.66;153024.09;1736192;82;20171;-64
2022/07/07 03:08:33;;;;;;;;;;;;;;;21.39;94.14;153031.94;1736076;82;20175;-64
2022/07/07 03:11:00;;;;;;;;;;;;;;;21.46;94.87;153048.94;1728841;82;20156;-64
2022/07/07 03:13:28;;;;;;;;;;;;;;;21.54;95.52;153068.50;1721739;83;21804;-65
2022/07/07 03:15:55;;;;;;;;;;;;;;;21.62;96.66;153089.45;1721710;83;20177;-64
2022/07/07 03:18:22;;;;;;;;;;;;;;;21.73;96.94;153118.25;1721883;83;20177;-65
2022/07/07 03:20:49;;;;;;;;;;;;;;;21.86;96.97;153149.66;1721827;83;20497;-64
2022/07/07 03:23:15;;;;;;;;;;;;;;;21.98;96.81;153179.72;1722003;83;20287;-64
2022/07/07 03:25:43;;;;;;;;;;;;;;;22.08;96.37;153204.56;1721715;83;21103;-63
2022/07/07 03:28:10;;;;;;;;;;;;;;;22.17;95.99;153228.09;1721883;83;20199;-63
2022/07/07 03:30:37;;;;;;;;;;;;;;;22.25;95.57;153249.03;1721736;83;20457;-63
2022/07/07 03:33:04;;;;;;;;;;;;;;;22.33;95.20;153269.95;1712197;83;20782;-64
2022/07/07 03:35:31;;;;;;;;;;;;;;;22.43;94.67;153293.47;1680054;85;20133;-64
2022/07/07 03:37:57;;;;;;;;;;;;;;;22.49;94.21;153307.92;1680180;85;21263;-63
2022/07/07 03:40:24;;;;;;;;;;;;;;;22.51;93.63;153314.48;1680035;85;20177;-64
2022/07/07 03:42:51;;;;;;;;;;;;;;;22.49;93.60;153309.25;1680160;85;20173;-64
2022/07/07 03:45:18;;;;;;;;;;;;;;;22.53;93.59;153318.37;1680008;85;20180;-64
2022/07/07 03:47:44;;;;;;;;;;;;;;;22.58;93.29;153332.78;1680043;85;20177;-64
2022/07/07 03:50:11;;;;;;;;;;;;;;;22.64;92.97;153345.84;1680172;85;21255;-64
2022/07/07 03:52:38;;;;;;;;;;;;;;;22.71;92.66;153364.19;1680045;85;20158;-64
2022/07/07 03:55:06;;;;;;;;;;;;;;;22.76;92.23;153377.27;1680102;85;20205;-64
2022/07/07 03:57:33;;;;;;;;;;;;;;;22.78;91.90;153381.22;1680261;85;20172;-61
2022/07/07 04:00:01;;;;;;;;;;;;;;;22.80;91.70;153387.72;1680200;85;20157;-63
2022/07/07 04:02:31;;;;;;;;;;;;;;;22.81;91.77;153389.06;1680136;85;21368;-63
2022/07/07 04:04:57;;;;;;;;;;;;;;;22.80;91.45;153387.72;1680067;85;20483;-62
2022/07/07 04:07:24;;;;;;;;;;;;;;;22.81;91.56;153390.34;1679967;85;20173;-62
2022/07/07 04:09:51;;;;;;;;;;;;;;;22.90;91.39;153412.59;1680293;85;20163;-62
2022/07/07 04:12:17;;;;;;;;;;;;;;;22.96;90.47;153426.98;1681643;85;20145;-62
2022/07/07 04:14:44;;;;;;;;;;;;;;;23.05;90.46;153450.52;1681583;85;21239;-63
2022/07/07 04:17:12;;;;;;;;;;;;;;;23.14;89.64;153474.11;1681426;85;20203;-63
2022/07/07 04:19:39;;;;;;;;;;;;;;;23.19;88.96;153485.84;1681579;84;20181;-62
2022/07/07 04:22:06;;;;;;;;;;;;;;;23.23;88.29;153495.02;1681667;84;20121;-63
2022/07/07 04:24:33;;;;;;;;;;;;;;;23.17;88.04;153481.94;1681456;85;20178;-63
2022/07/07 04:26:59;;;;;;;;;;;;;;;23.08;88.24;153458.36;1681342;85;21245;-63
2022/07/07 04:29:26;;;;;;;;;;;;;;;23.06;88.46;153453.13;1681134;85;20245;-63
2022/07/07 04:31:53;;;;;;;;;;;;;;;23.08;88.58;153458.36;1681426;85;20170;-63
2022/07/07 04:34:22;;;;;;;;;;;;;;;23.10;88.10;153463.64;1715624;82;20195;-62
2022/07/07 04:36:49;;;;;;;;;;;;;;;23.13;88.06;153471.48;1735862;82;20179;-63
2022/07/07 04:39:17;;;;;;;;;;;;;;;23.21;88.13;153489.78;1736363;82;21678;-63
2022/07/07 04:41:43;;;;;;;;;;;;;;;23.27;87.09;153506.86;1735984;82;20140;-63
2022/07/07 04:44:11;;;;;;;;;;;;;;;23.25;86.80;153500.25;1736103;82;20443;-63
2022/07/07 04:46:38;;;;;;;;;;;;;;;23.23;86.50;153496.34;1735911;82;20510;-63
2022/07/07 04:49:05;;;;;;;;;;;;;;;23.19;86.59;153485.84;1736249;82;20144;-63
2022/07/07 04:51:32;;;;;;;;;;;;;;;23.18;86.88;153484.56;1735883;82;21867;-63
2022/07/07 04:53:59;;;;;;;;;;;;;;;23.24;86.73;153497.64;1735883;82;20203;-64
2022/07/07 04:56:25;;;;;;;;;;;;;;;23.31;86.35;153516.00;1735734;82;20225;-63
2022/07/07 04:58:52;;;;;;;;;;;;;;;23.37;85.76;153531.73;1735970;82;20499;-63
2022/07/07 05:01:19;;;;;;;;;;;;;;;23.44;85.26;153548.75;1736099;82;20222;-63
2022/07/07 05:03:45;;;;;;;;;;;;;;;23.50;84.71;153564.44;1736149;82;21206;-63
2022/07/07 05:06:13;;;;;;;;;;;;;;;23.55;84.32;153576.23;1735978;82;20138;-63
2022/07/07 05:08:41;;;;;;;;;;;;;;;23.61;84.09;153593.22;1736107;82;20138;-63
2022/07/07 05:11:08;;;;;;;;;;;;;;;23.69;83.57;153612.86;1728262;82;20523;-63
2022/07/07 05:13:35;;;;;;;;;;;;;;;23.75;82.94;153627.27;1722299;83;20178;-63
2022/07/07 05:16:02;;;;;;;;;;;;;;;23.83;82.85;153648.19;1722310;83;21235;-63
2022/07/07 05:18:30;;;;;;;;;;;;;;;23.89;82.38;153662.61;1722366;83;20110;-63
2022/07/07 05:20:57;;;;;;;;;;;;;;;23.94;82.35;153674.41;1722445;83;20151;-63
2022/07/07 05:23:28;;;;;;;;;;;;;;;24.08;81.92;153709.80;1722525;83;20364;-64
2022/07/07 05:25:53;;;;;;;;;;;;;;;24.20;81.04;153741.19;1722040;83;20399;-63
2022/07/07 05:28:20;;;;;;;;;;;;;;;24.28;80.46;153762.17;1722544;83;21137;-64
2022/07/07 05:30:47;;;;;;;;;;;;;;;24.32;80.02;153771.36;1722185;83;20502;-64
2022/07/07 05:33:13;;;;;;;;;;;;;;;24.42;79.86;153796.19;1722376;83;20171;-62
2022/07/07 05:35:40;;;;;;;;;;;;;;;24.58;78.67;153836.83;1719966;83;20162;-63
2022/07/07 05:38:08;;;;;;;;;;;;;;;24.66;78.10;153856.48;1719890;83;20456;-63
2022/07/07 05:40:35;;;;;;;;;;;;;;;24.72;77.48;153872.19;1720005;83;21239;-63
2022/07/07 05:43:03;;;;;;;;;;;;;;;24.74;76.87;153877.42;1720085;82;20235;-62
2022/07/07 05:45:31;;;;;;;;;;;;;;;24.77;76.67;153885.31;1720112;83;20163;-62
2022/07/07 05:47:58;;;;;;;;;;;;;;;24.85;76.29;153906.25;1720119;83;20179;-63
2022/07/07 05:50:24;;;;;;;;;;;;;;;24.94;75.70;153928.53;1720285;83;20505;-64
2022/07/07 05:52:52;;;;;;;;;;;;;;;25.05;75.22;153956.03;1720189;83;21920;-63
2022/07/07 05:55:18;;;;;;;;;;;;;;;25.07;74.57;153961.28;1725113;81;20188;-63
2022/07/07 05:57:47;;;;;;;;;;;;;;;25.12;74.09;153974.41;1726118;82;20191;-63
2022/07/07 06:00:14;;;;;;;;;;;;;;;25.24;73.78;154003.22;1715089;82;20211;-62
2022/07/07 06:02:41;;;;;;;;;;;;;;;25.38;73.23;154039.91;1733682;82;20487;-63
2022/07/07 06:05:08;;;;;;;;;;;;;;;25.48;71.87;154063.53;1733790;82;22047;-63
2022/07/07 06:07:37;;;;;;;;;;;;;;;25.52;71.73;154075.33;1730753;82;20152;-63
2022/07/07 06:10:06;;;;;;;;;;;;;;;25.58;71.28;154089.77;1732190;82;20123;-63
2022/07/07 06:12:33;;;;;;;;;;;;;;;25.59;71.10;154092.38;1729918;81;20150;-64
2022/07/07 06:15:00;;;;;;;;;;;;;;;25.60;70.67;154095.00;1736461;81;20136;-64
2022/07/07 06:17:27;;;;;;;;;;;;;;;25.65;69.83;154108.09;1717242;82;21248;-64
2022/07/07 06:19:54;;;;;;;;;;;;;;;25.67;70.10;154112.05;1726113;82;20451;-63
2022/07/07 06:22:21;;;;;;;;;;;;;;;25.72;69.88;154126.42;1687683;85;20178;-64
2022/07/07 06:24:49;;;;;;;;;;;;;;;25.72;69.55;154126.42;1688349;85;20154;-64
2022/07/07 06:27:16;;;;;;;;;;;;;;;25.73;69.03;154127.75;1688304;85;20712;-64
2022/07/07 06:29:43;;;;;;;;;;;;;;;25.63;68.53;154102.86;1687887;85;21166;-64
2022/07/07 06:32:10;;;;;;;;;;;;;;;25.57;69.33;154088.44;1688281;85;20175;-63
2022/07/07 06:34:37;;;;;;;;;;;;;;;25.66;70.05;154110.70;1735996;82;20166;-63
2022/07/07 06:37:04;;;;;;;;;;;;;;;25.86;69.56;154160.52;1744143;81;20211;-63
2022/07/07 06:39:31;;;;;;;;;;;;;;;26.03;69.15;154203.75;1741207;81;20219;-63
2022/07/07 06:41:57;;;;;;;;;;;;;;;26.20;68.45;154247.09;1736246;81;21259;-63
2022/07/07 06:44:30;;;;;;;;;;;;;;;26.32;67.62;154277.25;1746916;81;20303;-65
2022/07/07 06:46:58;;;;;;;;;;;;;;;26.41;67.58;154299.48;1725591;81;20387;-63
2022/07/07 06:49:25;;;;;;;;;;;;;;;26.56;66.50;154338.84;1742342;81;20686;-64
2022/07/07 06:51:52;;;;;;;;;;;;;;;26.70;65.87;154372.95;1749072;81;20163;-64
2022/07/07 06:54:19;;;;;;;;;;;;;;;26.86;65.19;154413.64;1734706;81;21156;-64
2022/07/07 06:56:46;;;;;;;;;;;;;;;26.91;64.18;154425.45;1737447;81;20206;-64
2022/07/07 06:59:12;;;;;;;;;;;;;;;26.95;64.11;154435.94;1725106;82;20144;-65
2022/07/07 07:01:39;;;;;;;;;;;;;;;27.07;63.75;154466.09;1721455;82;20195;-65
2022/07/07 07:04:07;;;;;;;;;;;;;;;27.17;63.20;154493.64;1728114;81;20218;-64
2022/07/07 07:06:33;;;;;;;;;;;;;;;27.23;62.19;154506.75;1724225;82;21113;-63
2022/07/07 07:09:00;;;;;;;;;;;;;;;27.15;62.57;154488.41;1751550;81;20139;-63
2022/07/07 07:11:27;;;;;;;;;;;;;;;27.10;62.98;154475.30;1743242;81;20229;-64
2022/07/07 07:13:56;;;;;;;;;;;;;;;27.07;62.85;154467.39;1730129;82;20159;-64
2022/07/07 07:16:22;;;;;;;;;;;;;;;26.95;62.54;154437.22;1742285;82;20170;-63
2022/07/07 07:18:50;;;;;;;;;;;;;;;26.87;63.44;154417.59;1735965;81;21913;-62
2022/07/07 07:21:16;;;;;;;;;;;;;;;26.91;63.02;154425.45;1761231;81;20169;-62
2022/07/07 07:23:43;;;;;;;;;;;;;;;26.96;63.46;154438.56;1761529;81;20177;-63
2022/07/07 07:26:09;;;;;;;;;;;;;;;27.15;62.65;154488.41;1735212;81;20589;-63
2022/07/07 07:28:36;;;;;;;;;;;;;;;27.28;61.92;154519.86;1735267;81;20170;-63
2022/07/07 07:31:04;;;;;;;;;;;;;;;27.31;61.48;154527.77;1743837;82;21257;-63
2022/07/07 07:33:31;;;;;;;;;;;;;;;27.28;61.61;154519.86;1749727;81;20431;-63
2022/07/07 07:35:58;;;;;;;;;;;;;;;27.33;61.92;154533.00;1736999;81;20147;-63
2022/07/07 07:38:25;;;;;;;;;;;;;;;27.42;61.49;154555.31;1737361;82;20436;-62
2022/07/07 07:40:51;;;;;;;;;;;;;;;27.49;61.13;154573.66;1733793;82;20174;-62
2022/07/07 07:43:18;;;;;;;;;;;;;;;27.58;61.07;154597.30;1736549;82;21082;-62
2022/07/07 07:45:45;;;;;;;;;;;;;;;27.66;60.81;154616.98;1737705;82;20475;-62
2022/07/07 07:48:12;;;;;;;;;;;;;;;27.83;60.36;154658.98;1739649;82;20196;-63
2022/07/07 07:50:39;;;;;;;;;;;;;;;27.91;59.16;154679.97;1740432;81;20079;-63
2022/07/07 07:53:06;;;;;;;;;;;;;;;27.87;59.31;154669.47;1734899;82;20182;-64
2022/07/07 07:55:35;;;;;;;;;;;;;;;27.85;59.64;154665.56;1726096;82;21245;-64
2022/07/07 07:58:01;;;;;;;;;;;;;;;27.83;59.46;154658.98;1731380;82;20206;-63
2022/07/07 08:00:28;;;;;;;;;;;;;;;27.83;59.67;154660.27;1740936;82;20878;-63
2022/07/07 08:02:55;;;;;;;;;;;;;;;27.87;59.71;154670.81;1748788;82;20726;-62
2022/07/07 08:05:22;;;;;;;;;;;;;;;28.00;59.70;154703.61;1753378;81;20154;-63
2022/07/07 08:07:49;;;;;;;;;;;;;;;28.12;58.91;154733.78;1738756;82;21246;-62
2022/07/07 08:10:17;;;;;;;;;;;;;;;28.16;58.84;154744.33;1708664;83;20459;-63
2022/07/07 08:12:44;;;;;;;;;;;;;;;28.24;58.85;154764.02;1722268;83;20302;-63
2022/07/07 08:15:10;;;;;;;;;;;;;;;28.38;58.54;154798.11;1722728;82;20158;-63
2022/07/07 08:17:38;;;;;;;;;;;;;;;28.45;57.54;154816.52;1734283;82;20183;-63
2022/07/07 08:20:06;;;;;;;;;;;;;;;28.49;57.82;154825.67;1736066;82;21269;-64
2022/07/07 08:22:33;;;;;;;;;;;;;;;28.55;57.12;154842.75;1746384;81;20108;-63
2022/07/07 08:25:00;;;;;;;;;;;;;;;28.57;56.56;154847.98;1716646;82;20172;-66
2022/07/07 08:27:27;;;;;;;;;;;;;;;28.69;56.81;154876.89;1717304;83;20171;-65
2022/07/07 08:29:54;;;;;;;;;;;;;;;28.92;56.41;154934.70;1718051;81;20135;-66
2022/07/07 08:32:21;;;;;;;;;;;;;;;29.18;54.93;155001.67;1716460;81;21245;-66
2022/07/07 08:34:48;;;;;;;;;;;;;;;29.22;53.96;155010.84;1716133;82;20151;-66
2022/07/07 08:37:15;;;;;;;;;;;;;;;29.05;54.17;154967.52;1727955;82;20208;-66
2022/07/07 08:39:41;;;;;;;;;;;;;;;28.84;54.57;154916.28;1718730;81;20513;-66
2022/07/07 08:42:08;;;;;;;;;;;;;;;28.58;55.32;154850.61;1715175;83;20207;-66
2022/07/07 08:44:35;;;;;;;;;;;;;;;28.39;56.23;154800.73;1717770;82;21148;-66
2022/07/07 08:47:04;;;;;;;;;;;;;;;28.30;56.62;154778.47;1751304;80;20127;-65
2022/07/07 08:49:31;;;;;;;;;;;;;;;28.27;56.46;154770.55;1728991;81;20151;-65
2022/07/07 08:51:59;;;;;;;;;;;;;;;28.19;56.94;154749.56;1717191;82;20148;-66
2022/07/07 08:54:26;;;;;;;;;;;;;;;28.10;56.64;154727.20;1717447;83;20154;-66
2022/07/07 08:56:54;;;;;;;;;;;;;;;27.96;57.26;154693.06;1717187;83;21251;-66
2022/07/07 08:59:20;;;;;;;;;;;;;;;27.95;57.51;154690.44;1725520;82;20139;-66
2022/07/07 09:01:57;;;;;;;;;;;;;;;28.01;57.47;154704.89;1718684;81;20190;-66
2022/07/07 09:04:24;;;;;;;;;;;;;;;28.10;57.56;154727.20;1718580;82;20399;-67
2022/07/07 09:06:57;;;;;;;;;;;;;;;28.33;56.71;154786.34;1748976;81;20424;-66
2022/07/07 09:09:42;;;;;;;;;;;;;;;28.46;56.28;154819.14;1757099;81;22837;-66
2022/07/07 09:12:12;;;;;;;;;;;;;;;28.57;55.67;154847.98;1706840;83;20105;-66
2022/07/07 09:14:47;;;;;;;;;;;;;;;28.65;55.57;154867.69;1724845;82;20175;-67
2022/07/07 09:17:28;;;;;;;;;;;;;;;28.69;55.17;154876.89;1729391;81;20467;-66
2022/07/07 09:20:04;;;;;;;;;;;;;;;28.68;54.99;154874.27;1714756;82;20147;-65
2022/07/07 09:22:42;;;;;;;;;;;;;;;28.64;55.20;154863.78;1731973;82;21150;-64
2022/07/07 09:25:09;;;;;;;;;;;;;;;28.68;55.23;154875.56;1733788;82;20151;-65
2022/07/07 09:27:50;;;;;;;;;;;;;;;28.78;54.99;154899.22;1736024;82;20186;-65
2022/07/07 09:30:31;;;;;;;;;;;;;;;28.88;54.49;154926.84;1730000;82;20154;-67
2022/07/07 09:33:01;;;;;;;;;;;;;;;29.01;53.71;154958.31;1726736;82;20132;-65
2022/07/07 09:38:22;;;;;;;;;;;;;;;29.09;53.63;154979.34;1727957;81;20334;-67
2022/07/07 09:41:13;;;;;;;;;;;;;;;29.21;53.27;155009.55;1712998;82;20163;-67
2022/07/07 09:43:46;;;;;;;;;;;;;;;29.20;52.96;155005.59;1720489;82;20162;-66
2022/07/07 09:46:25;;;;;;;;;;;;;;;29.25;53.26;155018.70;1708954;83;20146;-66
2022/07/07 09:48:53;;;;;;;;;;;;;;;29.38;52.90;155052.88;1716584;83;21918;-67
2022/07/07 09:51:31;;;;;;;;;;;;;;;29.51;52.70;155085.73;1717468;83;20126;-68
2022/07/07 09:54:07;;;;;;;;;;;;;;;29.65;52.39;155119.91;1722464;82;20380;-67
2022/07/07 09:56:43;;;;;;;;;;;;;;;29.73;51.42;155140.91;1746351;81;20209;-67
2022/07/07 09:59:11;;;;;;;;;;;;;;;29.59;51.54;155105.45;1736143;82;20205;-67
2022/07/07 10:01:40;;;;;;;;;;;;;;;29.56;51.73;155097.58;1735990;82;21262;-67
2022/07/07 10:04:09;;;;;;;;;;;;;;;29.61;51.96;155110.70;1744824;81;20401;-67
2022/07/07 10:06:37;;;;;;;;;;;;;;;29.62;51.39;155111.98;1758776;81;20184;-67
2022/07/07 10:09:06;;;;;;;;;;;;;;;29.56;51.83;155098.86;1758423;81;20783;-67
2022/07/07 10:11:42;;;;;;;;;;;;;;;29.60;51.93;155108.08;1731647;81;20473;-68
2022/07/07 10:14:18;;;;;;;;;;;;;;;29.67;51.72;155126.44;1722478;83;21128;-67
2022/07/07 10:16:49;;;;;;;;;;;;;;;29.71;51.19;155136.94;1717308;81;20392;-67
2022/07/07 10:19:19;;;;;;;;;;;;;;;29.71;51.02;155135.66;1715130;82;20428;-67
2022/07/07 10:21:47;;;;;;;;;;;;;;;29.71;51.07;155136.94;1719563;81;20239;-66
2022/07/07 10:24:15;;;;;;;;;;;;;;;29.73;50.86;155142.25;1715713;81;20163;-67
2022/07/07 10:26:45;;;;;;;;;;;;;;;29.71;50.71;155136.94;1733147;81;21149;-67
2022/07/07 10:29:11;;;;;;;;;;;;;;;29.65;51.10;155121.19;1741718;81;20444;-67
2022/07/07 10:31:40;;;;;;;;;;;;;;;29.74;50.65;155143.53;1736232;82;20178;-67
2022/07/07 10:34:08;;;;;;;;;;;;;;;29.72;50.49;155139.56;1736336;82;20199;-67
2022/07/07 10:36:47;;;;;;;;;;;;;;;29.74;50.55;155143.53;1742201;82;20195;-67
2022/07/07 10:39:14;;;;;;;;;;;;;;;29.77;50.32;155151.41;1736080;82;21108;-67
2022/07/07 10:41:41;;;;;;;;;;;;;;;29.84;50.06;155168.48;1743998;82;20553;-67
2022/07/07 10:44:10;;;;;;;;;;;;;;;29.92;49.62;155188.19;1744129;82;20194;-67
2022/07/07 10:46:39;;;;;;;;;;;;;;;29.88;49.62;155180.33;1743711;82;20479;-67
2022/07/07 10:49:10;;;;;;;;;;;;;;;29.89;49.78;155181.61;1744145;82;20513;-67
2022/07/07 10:51:53;;;;;;;;;;;;;;;29.98;49.74;155205.28;1744060;82;21014;-66
2022/07/07 10:54:36;;;;;;;;;;;;;;;30.08;49.57;155230.30;1744187;82;20169;-67
2022/07/07 10:57:08;;;;;;;;;;;;;;;30.15;49.50;155248.67;1744100;82;20175;-67
2022/07/07 11:00:04;;;;;;;;;;;;;;;30.21;49.29;155263.13;1745058;81;20127;-67
2022/07/07 11:02:35;;;;;;;;;;;;;;;30.27;49.05;155278.88;1736010;82;20202;-65
2022/07/07 11:05:04;;;;;;;;;;;;;;;30.23;48.90;155268.38;1747913;81;21723;-66
2022/07/07 11:07:31;;;;;;;;;;;;;;;30.17;49.00;155252.58;1741891;81;20175;-68
2022/07/07 11:10:04;;;;;;;;;;;;;;;30.17;49.28;155252.58;1717361;82;20078;-68
2022/07/07 11:12:48;;;;;;;;;;;;;;;30.19;49.10;155257.88;1743810;81;20182;-67
2022/07/07 11:15:22;;;;;;;;;;;;;;;30.14;49.01;155244.70;1744372;82;20146;-68
2022/07/07 11:17:51;;;;;;;;;;;;;;;30.05;49.50;155222.38;1736775;82;21141;-67
2022/07/07 11:20:20;;;;;;;;;;;;;;;30.04;49.39;155218.45;1734401;81;20462;-67
2022/07/07 11:22:51;;;;;;;;;;;;;;;30.05;49.21;155221.08;1738635;82;20175;-68
2022/07/07 11:25:20;;;;;;;;;;;;;;;30.12;48.93;155240.80;1736520;82;20171;-66
2022/07/07 11:27:48;;;;;;;;;;;;;;;30.20;48.83;155260.50;1736091;82;20427;-67
2022/07/07 11:30:15;;;;;;;;;;;;;;;30.26;48.78;155276.25;1731169;81;21847;-68
2022/07/07 11:32:43;;;;;;;;;;;;;;;30.41;48.40;155313.06;1743749;82;20170;-67
2022/07/07 11:35:11;;;;;;;;;;;;;;;30.53;47.91;155343.28;1745402;81;20103;-68
2022/07/07 11:37:43;;;;;;;;;;;;;;;30.62;47.73;155365.63;1739620;82;21233;-68
2022/07/07 11:40:16;;;;;;;;;;;;;;;30.73;47.59;155395.89;1751703;81;20198;-68
2022/07/07 11:42:43;;;;;;;;;;;;;;;30.89;47.26;155434.00;1740825;81;21241;-68
2022/07/07 11:45:28;;;;;;;;;;;;;;;30.96;46.64;155453.72;1723909;82;20216;-67
2022/07/07 11:48:01;;;;;;;;;;;;;;;31.05;46.62;155476.02;1706420;82;20121;-68
2022/07/07 11:50:33;;;;;;;;;;;;;;;31.11;45.80;155491.81;1714251;82;20455;-68
2022/07/07 11:53:01;;;;;;;;;;;;;;;31.11;45.74;155491.81;1715296;83;20167;-68
2022/07/07 11:55:29;;;;;;;;;;;;;;;31.20;46.00;155514.22;1715637;83;20674;-68
2022/07/07 11:57:57;;;;;;;;;;;;;;;31.32;45.52;155543.11;1715129;82;20529;-68
2022/07/07 12:00:25;;;;;;;;;;;;;;;31.42;45.81;155570.72;1715846;83;20605;-68
2022/07/07 12:02:53;;;;;;;;;;;;;;;31.62;45.27;155619.39;1738049;81;20160;-69
2022/07/07 12:05:22;;;;;;;;;;;;;;;31.81;44.94;155668.06;1748153;81;20152;-67
2022/07/07 12:07:54;;;;;;;;;;;;;;;31.91;44.56;155694.34;1717719;81;21154;-67
2022/07/07 12:10:24;;;;;;;;;;;;;;;31.98;44.59;155712.78;1699593;83;20205;-67
2022/07/07 12:13:01;;;;;;;;;;;;;;;32.06;43.86;155731.17;1704689;82;20142;-69
2022/07/07 12:15:30;;;;;;;;;;;;;;;32.13;43.59;155749.56;1726222;82;20182;-68
2022/07/07 12:17:57;;;;;;;;;;;;;;;32.17;43.52;155760.12;1712308;83;20437;-68
2022/07/07 12:20:24;;;;;;;;;;;;;;;32.21;43.46;155770.64;1728528;82;21053;-69
2022/07/07 12:22:53;;;;;;;;;;;;;;;32.29;43.06;155791.66;1723131;82;20191;-69
2022/07/07 12:25:31;;;;;;;;;;;;;;;32.36;42.99;155807.47;1719573;81;20439;-68
2022/07/07 12:28:00;;;;;;;;;;;;;;;32.43;42.59;155827.22;1736139;82;20481;-68
2022/07/07 12:30:28;;;;;;;;;;;;;;;32.48;42.43;155837.72;1747641;82;20172;-67
2022/07/07 12:32:55;;;;;;;;;;;;;;;32.50;42.68;155844.31;1753573;81;21395;-67
2022/07/07 12:35:41;;;;;;;;;;;;;;;32.57;42.37;155862.72;1742905;81;20226;-69
2022/07/07 12:38:06;;;;;;;;;;;;;;;32.65;42.11;155881.16;1720198;82;20144;-68
2022/07/07 12:40:36;;;;;;;;;;;;;;;32.77;41.98;155912.70;1714783;82;20521;-67
2022/07/07 12:43:08;;;;;;;;;;;;;;;32.92;41.62;155950.91;1736409;82;20191;-68
2022/07/07 12:45:34;;;;;;;;;;;;;;;33.02;41.35;155975.89;1736192;82;21123;-67